Terminal Aerodrome Forecast
Issued by NWS

Home | Current Version | Previous Version | Text Only | Print | Product List | Glossary On
Versions: 1 2 3 4 5 6 7 8 9 10 11 12 13 14 15 16 17 18
451
FTUS46 KSEW 032003 AAA
TAFPAE
TAF AMD
KPAE 032003Z 0320/0418 16013KT P6SM BKN013 OVC020
     FM040100 19015KT 6SM -RA BR BKN013 OVC020
     FM040400 20015G22KT 5SM -RA BR OVC015
     FM041200 VRB05KT 4SM -SHRA OVC012
     FM041400 31005KT P6SM -SHRA SCT015 BKN025=

USA.gov is the U.S. government's official web portal to all federal, state and local government web resources and services.